createdAt,value
2018-09-26T00:00:01.049Z,70.84
2018-09-26T00:01:11.194Z,70.65
2018-09-26T00:02:21.181Z,70.75
2018-09-26T00:03:31.340Z,70.56
2018-09-26T00:04:41.464Z,70.84
2018-09-26T00:05:51.342Z,70.84
2018-09-26T00:07:01.484Z,70.97
2018-09-26T00:08:11.684Z,70.56
2018-09-26T00:09:21.905Z,70.75
2018-09-26T00:10:32.093Z,70.94
2018-09-26T00:11:42.499Z,70.75
2018-09-26T00:12:52.497Z,70.65
2018-09-26T00:14:02.723Z,70.65
2018-09-26T00:15:12.862Z,70.75
2018-09-26T00:16:23.121Z,70.65
2018-09-26T00:17:33.324Z,70.84
2018-09-26T00:18:43.608Z,70.97
2018-09-26T00:19:53.834Z,70.84
2018-09-26T00:21:04.251Z,70.78
2018-09-26T00:22:14.357Z,70.59
2018-09-26T00:23:24.551Z,70.97
2018-09-26T00:24:34.769Z,70.97
2018-09-26T00:25:44.891Z,70.88
2018-09-26T00:26:54.800Z,71.07
2018-09-26T00:28:04.925Z,70.78
2018-09-26T00:29:15.504Z,71.07
2018-09-26T00:30:25.751Z,70.69
2018-09-26T00:31:36.148Z,70.59
2018-09-26T00:32:46.659Z,70.97
2018-09-26T00:33:56.792Z,70.4
2018-09-26T00:35:06.906Z,70.21
2018-09-26T00:36:17.101Z,70.18
2018-09-26T00:37:27.606Z,70.18
2018-09-26T00:38:37.650Z,70.08
2018-09-26T00:39:47.823Z,69.99
2018-09-26T00:40:57.932Z,69.89
2018-09-26T00:42:08.096Z,70.08
2018-09-26T00:43:17.988Z,69.89
2018-09-26T00:44:28.146Z,70.18
2018-09-26T00:45:38.265Z,70.27
2018-09-26T00:46:48.419Z,70.27
2018-09-26T00:47:58.577Z,70.08
2018-09-26T00:49:08.771Z,70.27
2018-09-26T00:50:18.955Z,70.56
2018-09-26T00:51:28.891Z,70.65
2018-09-26T00:52:38.753Z,70.56
2018-09-26T00:53:48.865Z,70.47
2018-09-26T00:54:59.025Z,70.47
2018-09-26T00:56:09.295Z,70.33
2018-09-26T00:57:20.417Z,70.47
2018-09-26T00:58:30.593Z,70.47
2018-09-26T00:59:40.834Z,70.56
2018-09-26T01:00:51.037Z,70.37
2018-09-26T01:02:01.352Z,70.08
2018-09-26T01:03:11.666Z,69.99
2018-09-26T01:04:21.805Z,70.08
2018-09-26T01:05:31.664Z,70.18
2018-09-26T01:06:41.861Z,69.99
2018-09-26T01:07:52.108Z,70.18
2018-09-26T01:09:02.225Z,69.99
2018-09-26T01:10:12.444Z,70.08
2018-09-26T01:11:22.696Z,70.18
2018-09-26T01:12:32.839Z,70.18
2018-09-26T01:13:43.080Z,70.47
2018-09-26T01:14:53.201Z,69.99
2018-09-26T01:16:03.096Z,70.47
2018-09-26T01:17:13.229Z,69.99
2018-09-26T01:18:23.100Z,69.79
2018-09-26T01:19:33.428Z,69.89
2018-09-26T01:20:43.550Z,69.89
2018-09-26T01:21:53.712Z,69.79
2018-09-26T01:23:03.907Z,69.7
2018-09-26T01:24:14.189Z,70.18
2018-09-26T01:25:24.453Z,69.51
2018-09-26T01:26:34.777Z,69.7
2018-09-26T01:27:44.927Z,69.99
2018-09-26T01:28:55.067Z,69.79
2018-09-26T01:30:05.218Z,69.99
2018-09-26T01:31:15.352Z,69.23
2018-09-26T01:32:25.349Z,69.23
2018-09-26T01:33:34.864Z,69.42
2018-09-26T01:34:46.239Z,69.23
2018-09-26T01:35:56.405Z,69.04
2018-09-26T01:37:06.592Z,69.32
2018-09-26T01:38:16.817Z,69.23
2018-09-26T01:39:26.989Z,69.42
2018-09-26T01:40:37.191Z,69.04
2018-09-26T01:41:47.329Z,69.51
2018-09-26T01:42:57.323Z,69.13
2018-09-26T01:44:07.406Z,69.7
2018-09-26T01:45:17.583Z,69.42
2018-09-26T01:46:27.808Z,69.42
2018-09-26T01:47:37.985Z,69.51
2018-09-26T01:48:48.119Z,69.23
2018-09-26T01:49:58.468Z,69.51
2018-09-26T01:51:08.682Z,69.04
2018-09-26T01:52:18.640Z,69.04
2018-09-26T01:53:28.539Z,69.04
2018-09-26T01:54:38.678Z,69.13
2018-09-26T01:55:48.801Z,69.13
2018-09-26T01:56:58.915Z,69.04
2018-09-26T01:58:08.782Z,69.23
2018-09-26T01:59:18.903Z,68.75
2018-09-26T02:00:29.053Z,68.56
2018-09-26T02:01:39.174Z,68.94
2018-09-26T02:02:49.401Z,68.84
2018-09-26T02:03:59.521Z,68.94
2018-09-26T02:05:09.913Z,68.81
2018-09-26T02:06:20.109Z,68.9
2018-09-26T02:07:30.273Z,68.75
2018-09-26T02:08:40.381Z,68.94
2018-09-26T02:09:50.509Z,68.65
2018-09-26T02:11:00.640Z,68.65
2018-09-26T02:12:10.806Z,68.9
2018-09-26T02:13:20.977Z,68.81
2018-09-26T02:14:31.108Z,68.9
2018-09-26T02:15:41.242Z,69
2018-09-26T02:16:51.503Z,68.71
2018-09-26T02:18:01.909Z,69.1
2018-09-26T02:19:12.110Z,69.23
2018-09-26T02:20:22.315Z,69.42
2018-09-26T02:21:32.465Z,69.51
2018-09-26T02:22:42.827Z,69.32
2018-09-26T02:23:52.842Z,69.6
2018-09-26T02:25:03.166Z,69.32
2018-09-26T02:26:13.505Z,69.04
2018-09-26T02:27:23.629Z,69.13
2018-09-26T02:28:33.849Z,69.13
2018-09-26T02:29:44.047Z,69.04
2018-09-26T02:30:54.241Z,68.94
2018-09-26T02:32:04.370Z,69.23
2018-09-26T02:33:14.540Z,69.13
2018-09-26T02:34:24.691Z,68.56
2018-09-26T02:35:34.811Z,68.56
2018-09-26T02:36:44.309Z,68.84
2018-09-26T02:37:54.227Z,69.04
2018-09-26T02:39:04.415Z,69.04
2018-09-26T02:40:14.675Z,69.23
2018-09-26T02:41:24.812Z,69.23
2018-09-26T02:42:34.967Z,69.13
2018-09-26T02:43:44.954Z,69.04
2018-09-26T02:44:55.293Z,69.51
2018-09-26T02:46:05.442Z,69.6
2018-09-26T02:47:15.402Z,69.04
2018-09-26T02:48:25.725Z,69.13
2018-09-26T02:49:35.632Z,69.04
2018-09-26T02:50:45.770Z,68.94
2018-09-26T02:51:55.959Z,68.56
2018-09-26T02:53:06.094Z,68.84
2018-09-26T02:54:16.266Z,68.56
2018-09-26T02:55:26.165Z,68.94
2018-09-26T02:56:36.344Z,68.84
2018-09-26T02:57:46.678Z,68.94
2018-09-26T02:58:56.811Z,68.84
2018-09-26T03:00:06.984Z,68.81
2018-09-26T03:01:17.148Z,68.81
2018-09-26T03:02:27.591Z,68.62
2018-09-26T03:03:37.465Z,68.52
2018-09-26T03:04:47.443Z,69.23
2018-09-26T03:05:57.632Z,69.13
2018-09-26T03:07:07.778Z,68.94
2018-09-26T03:08:18.232Z,68.56
2018-09-26T03:09:28.369Z,69.23
2018-09-26T03:10:38.517Z,68.84
2018-09-26T03:11:48.782Z,68.56
2018-09-26T03:12:58.997Z,68.75
2018-09-26T03:14:09.083Z,68.56
2018-09-26T03:15:19.432Z,69.04
2018-09-26T03:16:29.584Z,68.94
2018-09-26T03:17:39.878Z,68.75
2018-09-26T03:18:50.017Z,68.65
2018-09-26T03:20:00.364Z,69.04
2018-09-26T03:21:10.754Z,68.94
2018-09-26T03:22:20.795Z,68.75
2018-09-26T03:23:30.927Z,69.23
2018-09-26T03:24:41.193Z,69.23
2018-09-26T03:25:51.363Z,68.94
2018-09-26T03:27:01.528Z,69.13
2018-09-26T03:28:11.710Z,69.13
2018-09-26T03:29:21.944Z,69.23
2018-09-26T03:30:32.078Z,68.56
2018-09-26T03:31:42.211Z,68.65
2018-09-26T03:32:52.364Z,68.75
2018-09-26T03:34:02.155Z,68.75
2018-09-26T03:35:12.033Z,68.65
2018-09-26T03:36:22.226Z,68.65
2018-09-26T03:37:32.628Z,68.75
2018-09-26T03:38:42.903Z,68.75
2018-09-26T03:39:53.064Z,68.65
2018-09-26T03:41:02.917Z,68.37
2018-09-26T03:42:13.071Z,68.46
2018-09-26T03:43:23.227Z,68.56
2018-09-26T03:44:33.445Z,68.37
2018-09-26T03:45:43.639Z,68.37
2018-09-26T03:46:53.907Z,68.37
2018-09-26T03:48:04.122Z,68.37
2018-09-26T03:49:13.978Z,68.56
2018-09-26T03:50:24.142Z,68.56
2018-09-26T03:51:34.318Z,68.37
2018-09-26T03:52:44.553Z,68.27
2018-09-26T03:53:54.783Z,68.27
2018-09-26T03:55:04.997Z,68.18
2018-09-26T03:56:14.920Z,68.27
2018-09-26T03:57:25.034Z,68.33
2018-09-26T03:58:35.143Z,68.9
2018-09-26T03:59:45.037Z,68.71
2018-09-26T04:00:55.193Z,68.62
2018-09-26T04:02:05.333Z,68.71
2018-09-26T04:03:15.150Z,68.71
2018-09-26T04:04:25.508Z,68.81
2018-09-26T04:05:35.642Z,68.81
2018-09-26T04:06:45.769Z,68.43
2018-09-26T04:07:55.967Z,68.81
2018-09-26T04:09:06.165Z,68.71
2018-09-26T04:10:16.354Z,68.71
2018-09-26T04:11:26.505Z,68.71
2018-09-26T04:12:36.433Z,68.9
2018-09-26T04:13:47.313Z,68.71
2018-09-26T04:14:57.220Z,69.19
2018-09-26T04:16:07.500Z,68.81
2018-09-26T04:17:17.742Z,69
2018-09-26T04:18:27.915Z,69
2018-09-26T04:19:38.152Z,69.29
2018-09-26T04:20:48.355Z,69
2018-09-26T04:21:58.743Z,69.38
2018-09-26T04:23:08.877Z,69.44
2018-09-26T04:24:19.021Z,69.29
2018-09-26T04:25:29.233Z,69.85
2018-09-26T04:26:39.475Z,69.63
2018-09-26T04:27:51.179Z,69.73
2018-09-26T04:29:01.476Z,69.92
2018-09-26T04:30:11.611Z,69.63
2018-09-26T04:31:22.088Z,70.01
2018-09-26T04:32:32.415Z,70.49
2018-09-26T04:33:43.397Z,70.68
2018-09-26T04:34:54.096Z,70.68
2018-09-26T04:36:03.951Z,70.77
2018-09-26T04:37:14.073Z,70.68
2018-09-26T04:38:24.279Z,70.87
2018-09-26T04:39:34.726Z,70.87
2018-09-26T04:40:44.943Z,70.39
2018-09-26T04:41:55.053Z,70.68
2018-09-26T04:43:05.219Z,70.39
2018-09-26T04:44:15.375Z,70.2
2018-09-26T04:45:25.562Z,70.39
2018-09-26T04:46:35.685Z,70.77
2018-09-26T04:47:45.941Z,70.2
2018-09-26T04:48:56.137Z,70.87
2018-09-26T04:50:06.330Z,70.87
2018-09-26T04:51:16.467Z,70.77
2018-09-26T04:52:26.358Z,70.58
2018-09-26T04:53:36.526Z,70.58
2018-09-26T04:54:46.723Z,70.49
2018-09-26T04:55:56.844Z,70.87
2018-09-26T04:57:07.212Z,70.97
2018-09-26T04:58:17.217Z,71.44
2018-09-26T04:59:27.680Z,71.06
2018-09-26T05:00:37.539Z,71.15
2018-09-26T05:01:47.707Z,71.22
2018-09-26T05:02:57.631Z,71.34
2018-09-26T05:04:07.769Z,71.53
2018-09-26T05:05:17.885Z,71.72
2018-09-26T05:06:28.038Z,71.53
2018-09-26T05:07:38.240Z,71.59
2018-09-26T05:08:48.104Z,72.16
2018-09-26T05:09:58.359Z,72.26
2018-09-26T05:11:08.551Z,71.88
2018-09-26T05:12:18.690Z,71.88
2018-09-26T05:13:28.948Z,71.78
2018-09-26T05:14:39.232Z,72.11
2018-09-26T05:15:49.687Z,71.97
2018-09-26T05:16:59.820Z,71.97
2018-09-26T05:18:10.266Z,72.45
2018-09-26T05:19:20.526Z,71.88
2018-09-26T05:20:30.643Z,72.49
2018-09-26T05:21:40.764Z,72.83
2018-09-26T05:22:51.092Z,72.64
2018-09-26T05:24:01.536Z,72.55
2018-09-26T05:25:11.661Z,72.64
2018-09-26T05:26:21.812Z,72.55
2018-09-26T05:27:32.053Z,72.58
2018-09-26T05:28:42.242Z,72.58
2018-09-26T05:29:52.457Z,72.67
2018-09-26T05:31:04.660Z,72.55
2018-09-26T05:32:14.797Z,72.58
2018-09-26T05:33:24.928Z,72.67
2018-09-26T05:34:35.058Z,72.49
2018-09-26T05:35:45.205Z,72.58
2018-09-26T05:36:55.364Z,72.58
2018-09-26T05:38:05.179Z,72.77
2018-09-26T05:39:15.078Z,72.86
2018-09-26T05:40:25.187Z,72.67
2018-09-26T05:41:35.394Z,72.11
2018-09-26T05:42:45.773Z,72.39
2018-09-26T05:43:56.197Z,72.2
2018-09-26T05:45:06.344Z,72.01
2018-09-26T05:46:16.524Z,71.91
2018-09-26T05:47:26.898Z,71.91
2018-09-26T05:48:37.075Z,72.01
2018-09-26T05:49:47.272Z,72.39
2018-09-26T05:50:57.437Z,72.01
2018-09-26T05:52:07.681Z,71.63
2018-09-26T05:53:17.669Z,71.44
2018-09-26T05:54:28.163Z,71.53
2018-09-26T05:55:38.376Z,71.72
2018-09-26T05:56:48.264Z,72.05
2018-09-26T05:57:58.116Z,71.57
2018-09-26T05:59:08.320Z,71.44
2018-09-26T06:00:18.456Z,71.38
2018-09-26T06:01:28.543Z,71.47
2018-09-26T06:02:38.415Z,70.87
2018-09-26T06:03:48.580Z,71.28
2018-09-26T06:04:58.703Z,71.19
2018-09-26T06:06:09.123Z,71.38
2018-09-26T06:07:19.129Z,70.9
2018-09-26T06:08:29.014Z,70.9
2018-09-26T06:09:39.123Z,70.9
2018-09-26T06:10:49.321Z,70.9
2018-09-26T06:11:59.174Z,70.81
2018-09-26T06:13:09.433Z,70.52
2018-09-26T06:14:19.623Z,70.72
2018-09-26T06:15:29.913Z,70.52
2018-09-26T06:16:39.556Z,70.62
2018-09-26T06:17:49.705Z,70.72
2018-09-26T06:18:59.891Z,70.81
2018-09-26T06:20:10.269Z,70.52
2018-09-26T06:21:21.372Z,70.43
2018-09-26T06:22:31.495Z,70.62
2018-09-26T06:23:41.361Z,69.95
2018-09-26T06:24:51.628Z,69.95
2018-09-26T06:26:01.815Z,70.14
2018-09-26T06:27:12.912Z,69.95
2018-09-26T06:28:23.188Z,69.57
2018-09-26T06:29:33.330Z,69.76
2018-09-26T06:30:43.208Z,69.85
2018-09-26T06:31:53.343Z,69.76
2018-09-26T06:33:03.741Z,69.13
2018-09-26T06:34:13.884Z,69.6
2018-09-26T06:35:24.020Z,69.23
2018-09-26T06:36:33.692Z,68.56
2018-09-26T06:37:43.897Z,68.37
2018-09-26T06:38:54.036Z,68.37
2018-09-26T06:40:04.274Z,68.18
2018-09-26T06:41:14.505Z,67.8
2018-09-26T06:42:24.745Z,68.02
2018-09-26T06:43:35.148Z,67.83
2018-09-26T06:44:45.005Z,67.55
2018-09-26T06:45:55.330Z,66.97
2018-09-26T06:47:05.454Z,66.97
2018-09-26T06:48:15.579Z,66.59
2018-09-26T06:49:25.723Z,66.69
2018-09-26T06:50:35.904Z,66.11
2018-09-26T06:51:46.057Z,66.21
2018-09-26T06:52:56.259Z,66.11
2018-09-26T06:54:06.483Z,65.58
2018-09-26T06:55:16.830Z,65.77
2018-09-26T06:56:26.723Z,65
2018-09-26T06:57:36.856Z,65
2018-09-26T06:58:46.974Z,64.91
2018-09-26T06:59:57.162Z,64.81
2018-09-26T07:01:07.472Z,64.43
2018-09-26T07:02:17.663Z,64.62
2018-09-26T07:03:27.838Z,64.43
2018-09-26T07:04:37.988Z,64.15
2018-09-26T07:05:48.244Z,64.15
2018-09-26T07:06:58.717Z,63.57
2018-09-26T07:08:08.866Z,64.05
2018-09-26T07:09:19.022Z,63.57
2018-09-26T07:10:29.233Z,62.81
2018-09-26T07:11:39.428Z,63.2
2018-09-26T07:12:49.644Z,62.91
2018-09-26T07:13:59.942Z,63.1
2018-09-26T07:15:10.134Z,62.84
2018-09-26T07:16:20.284Z,62.56
2018-09-26T07:17:30.180Z,61.99
2018-09-26T07:18:40.320Z,62.18
2018-09-26T07:19:50.473Z,61.7
2018-09-26T07:21:00.632Z,61.51
2018-09-26T07:22:10.869Z,61.41
2018-09-26T07:23:21.066Z,60.55
2018-09-26T07:24:31.250Z,60.78
2018-09-26T07:25:41.388Z,60.39
2018-09-26T07:26:51.575Z,60.02
2018-09-26T07:28:01.726Z,60.21
2018-09-26T07:29:11.862Z,59.63
2018-09-26T07:30:21.976Z,59.82
2018-09-26T07:31:32.410Z,58.87
2018-09-26T07:32:42.916Z,58.9
2018-09-26T07:33:53.073Z,59.19
2018-09-26T07:35:03.212Z,58.61
2018-09-26T07:36:13.354Z,58.36
2018-09-26T07:37:23.515Z,57.68
2018-09-26T07:38:33.827Z,57.02
2018-09-26T07:39:44.195Z,56.92
2018-09-26T07:40:54.087Z,56.47
2018-09-26T07:42:04.252Z,56.09
2018-09-26T07:43:14.378Z,55.61
2018-09-26T07:44:24.577Z,55.45
2018-09-26T07:45:35.070Z,55.35
2018-09-26T07:46:45.705Z,54.88
2018-09-26T07:47:55.900Z,54.33
2018-09-26T07:49:05.816Z,53.71
2018-09-26T07:50:15.979Z,52.2
2018-09-26T07:51:25.957Z,51.46
2018-09-26T07:52:35.846Z,50.15
2018-09-26T07:53:45.975Z,49.15
2018-09-26T07:54:55.852Z,48.11
2018-09-26T07:56:06.006Z,47.36
2018-09-26T07:57:16.184Z,46.23
2018-09-26T07:58:26.316Z,45.49
2018-09-26T07:59:36.251Z,45.42
2018-09-26T08:00:46.419Z,44.49
2018-09-26T08:01:56.593Z,42.3
2018-09-26T08:03:06.967Z,42.11
2018-09-26T08:04:17.148Z,41.53
2018-09-26T08:05:27.269Z,41.05
2018-09-26T08:06:37.405Z,40.09
2018-09-26T08:07:47.328Z,38.45
2018-09-26T08:08:57.464Z,39.22
2018-09-26T08:10:07.657Z,39.41
2018-09-26T08:11:18.260Z,38.64
2018-09-26T08:12:28.758Z,37.96
2018-09-26T08:13:39.009Z,38.54
2018-09-26T08:14:49.164Z,38.26
2018-09-26T08:15:59.280Z,38.35
2018-09-26T08:17:09.212Z,38.06
2018-09-26T08:18:19.712Z,37.87
2018-09-26T08:19:29.948Z,36.91
2018-09-26T08:20:40.100Z,37.19
2018-09-26T08:21:49.999Z,37.56
2018-09-26T08:23:00.165Z,37.37
2018-09-26T08:24:10.651Z,37.18
2018-09-26T08:25:22.175Z,37.37
2018-09-26T08:26:32.310Z,37.29
2018-09-26T08:27:42.096Z,36.04
2018-09-26T08:28:52.253Z,36.43
2018-09-26T08:30:02.801Z,36.71
2018-09-26T08:31:13.015Z,36.23
2018-09-26T08:32:23.184Z,36.23
2018-09-26T08:33:33.041Z,35.16
2018-09-26T08:34:43.205Z,36.1
2018-09-26T08:35:53.488Z,36.49
2018-09-26T08:37:03.694Z,36.58
2018-09-26T08:38:13.840Z,36.56
2018-09-26T08:39:23.733Z,36.76
2018-09-26T08:40:33.877Z,36.87
2018-09-26T08:41:44.046Z,36.49
2018-09-26T08:42:54.311Z,35.81
2018-09-26T08:44:04.695Z,36.02
2018-09-26T08:45:14.655Z,35.25
2018-09-26T08:46:24.933Z,34.48
2018-09-26T08:47:35.147Z,34.86
2018-09-26T08:48:45.278Z,35.42
2018-09-26T08:49:56.760Z,35.33
2018-09-26T08:51:06.898Z,35.71
2018-09-26T08:52:17.024Z,35.99
2018-09-26T08:53:26.805Z,35.89
2018-09-26T08:54:37.023Z,35.58
2018-09-26T08:55:47.288Z,36.24
2018-09-26T08:56:58.392Z,36.24
2018-09-26T08:58:08.571Z,36.51
2018-09-26T08:59:18.823Z,36.88
2018-09-26T09:00:29.198Z,36.97
2018-09-26T09:01:39.428Z,37.24
2018-09-26T09:02:49.618Z,37.35
2018-09-26T09:03:59.774Z,37.82
2018-09-26T09:05:09.706Z,38.2
2018-09-26T09:06:20.034Z,38.59
2018-09-26T09:07:30.492Z,39.16
2018-09-26T09:08:40.629Z,38.49
2018-09-26T09:09:50.787Z,38.29
2018-09-26T09:11:00.706Z,37.74
2018-09-26T09:12:11.116Z,37.93
2018-09-26T09:13:21.241Z,37.93
2018-09-26T09:14:31.555Z,37.74
2018-09-26T09:15:42.055Z,37.47
2018-09-26T09:16:52.191Z,37.18
2018-09-26T09:18:02.390Z,36.72
2018-09-26T09:19:12.705Z,36.72
2018-09-26T09:20:23.365Z,36.16
2018-09-26T09:21:33.592Z,36.35
2018-09-26T09:22:43.715Z,36.18
2018-09-26T09:23:53.901Z,36.18
2018-09-26T09:25:04.162Z,35.99
2018-09-26T09:26:14.419Z,35.71
2018-09-26T09:27:24.942Z,35.14
2018-09-26T09:28:35.609Z,35.06
2018-09-26T09:29:45.782Z,34.58
2018-09-26T09:30:56.882Z,34.86
2018-09-26T09:32:07.051Z,34.11
2018-09-26T09:33:17.342Z,34.22
2018-09-26T09:34:27.682Z,33.65
2018-09-26T09:35:37.792Z,33.47
2018-09-26T09:36:48.215Z,32.12
2018-09-26T09:37:59.361Z,32.89
2018-09-26T09:39:09.555Z,31.73
2018-09-26T09:40:19.684Z,31.73
2018-09-26T09:41:29.256Z,32.04
2018-09-26T09:42:39.076Z,32.23
2018-09-26T09:43:49.311Z,30.59
2018-09-26T09:44:59.650Z,30.69
2018-09-26T09:46:09.843Z,30.99
2018-09-26T09:47:19.905Z,30.51
2018-09-26T09:48:29.808Z,30.61
2018-09-26T09:49:40.010Z,30.22
2018-09-26T09:50:50.160Z,29.83
2018-09-26T09:52:00.341Z,29.85
2018-09-26T09:53:10.611Z,29.94
2018-09-26T09:54:20.777Z,28.88
2018-09-26T09:55:30.933Z,29.46
2018-09-26T09:56:41.103Z,28.59
2018-09-26T09:57:51.353Z,29.28
2018-09-26T09:59:01.494Z,28.8
2018-09-26T10:00:11.697Z,29.49
2018-09-26T10:01:21.887Z,28.15
2018-09-26T10:02:32.150Z,28.05
2018-09-26T10:03:42.705Z,26.61
2018-09-26T10:04:52.796Z,26.14
2018-09-26T10:06:02.596Z,25.74
2018-09-26T10:07:12.725Z,26.23
2018-09-26T10:08:23.090Z,26.23
2018-09-26T10:09:33.555Z,26.62
2018-09-26T10:10:43.718Z,25.95
2018-09-26T10:11:53.854Z,25.27
2018-09-26T10:13:03.994Z,23.63
2018-09-26T10:14:14.086Z,24.69
2018-09-26T10:15:24.898Z,24.4
2018-09-26T10:16:35.087Z,24.6
2018-09-26T10:17:45.421Z,25.07
2018-09-26T10:18:55.554Z,24.97
2018-09-26T10:20:05.739Z,25.07
2018-09-26T10:21:16.135Z,24.78
2018-09-26T10:22:26.297Z,24.98
2018-09-26T10:23:36.473Z,25.18
2018-09-26T10:24:47.430Z,24.3
2018-09-26T10:25:57.660Z,24.61
2018-09-26T10:27:08.954Z,24.8
2018-09-26T10:28:19.138Z,23.83
2018-09-26T10:29:29.332Z,23.64
2018-09-26T10:30:39.562Z,24.32
2018-09-26T10:31:49.736Z,24.52
2018-09-26T10:32:59.530Z,24.43
2018-09-26T10:34:09.791Z,24.43
2018-09-26T10:35:20.052Z,23.94
2018-09-26T10:36:29.678Z,22.88
2018-09-26T10:37:39.898Z,22.88
2018-09-26T10:38:49.700Z,23.44
2018-09-26T10:39:59.980Z,23.44
2018-09-26T10:41:10.179Z,23.74
2018-09-26T10:42:20.134Z,23.64
2018-09-26T10:43:30.313Z,24.4
2018-09-26T10:44:40.522Z,24.3
2018-09-26T10:45:50.698Z,24.6
2018-09-26T10:47:00.830Z,24.3
2018-09-26T10:48:11.018Z,24.88
2018-09-26T10:49:21.217Z,24.3
2018-09-26T10:50:31.386Z,23.71
2018-09-26T10:51:41.582Z,23.61
2018-09-26T10:52:51.824Z,23.5
2018-09-26T10:54:01.736Z,24.28
2018-09-26T10:55:11.903Z,24.37
2018-09-26T10:56:22.290Z,24.56
2018-09-26T10:57:33.231Z,24.56
2018-09-26T10:58:43.397Z,24.74
2018-09-26T10:59:53.614Z,24.84
2018-09-26T11:01:03.899Z,25.31
2018-09-26T11:02:14.097Z,25.5
2018-09-26T11:03:24.519Z,25.68
2018-09-26T11:04:34.657Z,25.78
2018-09-26T11:05:44.795Z,26.06
2018-09-26T11:06:54.968Z,25.86
2018-09-26T11:08:05.173Z,25.95
2018-09-26T11:09:15.251Z,25.85
2018-09-26T11:10:25.317Z,25.75
2018-09-26T11:11:35.379Z,26.03
2018-09-26T11:12:45.983Z,25.93
2018-09-26T11:13:56.394Z,26.4
2018-09-26T11:15:06.685Z,26.4
2018-09-26T11:16:16.976Z,26.97
2018-09-26T11:17:27.093Z,27.45
2018-09-26T11:18:37.384Z,28.03
2018-09-26T11:19:47.675Z,28.02
2018-09-26T11:20:58.813Z,28.2
2018-09-26T11:22:08.566Z,28.11
2018-09-26T11:23:19.310Z,28.3
2018-09-26T11:24:29.477Z,27.92
2018-09-26T11:25:39.369Z,28.02
2018-09-26T11:26:49.661Z,28.02
2018-09-26T11:27:59.173Z,28.22
2018-09-26T11:29:08.944Z,27.93
2018-09-26T11:30:19.073Z,27.64
2018-09-26T11:31:29.195Z,27.46
2018-09-26T11:32:39.427Z,27.37
2018-09-26T11:33:49.804Z,27.37
2018-09-26T11:35:00.366Z,27.19
2018-09-26T11:36:10.619Z,27.48
2018-09-26T11:37:20.763Z,27.48
2018-09-26T11:38:30.948Z,26.91
2018-09-26T11:39:41.105Z,26.43
2018-09-26T11:40:51.398Z,26.14
2018-09-26T11:42:01.634Z,26.06
2018-09-26T11:43:12.048Z,25.57
2018-09-26T11:44:22.314Z,25.1
2018-09-26T11:45:33.129Z,24.91
2018-09-26T11:46:43.318Z,24.73
2018-09-26T11:47:53.457Z,24.63
2018-09-26T11:49:03.615Z,24.63
2018-09-26T11:50:13.893Z,24.44
2018-09-26T11:51:24.081Z,24.81
2018-09-26T11:52:34.252Z,24.81
2018-09-26T11:53:44.445Z,24.24
2018-09-26T11:54:54.219Z,23.66
2018-09-26T11:56:03.940Z,23.66
2018-09-26T11:57:14.088Z,23.97
2018-09-26T11:58:24.394Z,24.07
2018-09-26T11:59:34.860Z,24.55
2018-09-26T12:00:45.225Z,24.26
2018-09-26T12:01:55.396Z,23.97
2018-09-26T12:03:05.669Z,23.29
2018-09-26T12:04:15.986Z,23.76
2018-09-26T12:05:26.467Z,23.47
2018-09-26T12:06:37.051Z,22.7
2018-09-26T12:07:46.976Z,23.18
2018-09-26T12:08:57.314Z,22.8
2018-09-26T12:10:07.562Z,23.17
2018-09-26T12:11:17.958Z,23.65
2018-09-26T12:12:28.363Z,23.65
2018-09-26T12:13:38.714Z,23.75
2018-09-26T12:14:48.772Z,23.47
2018-09-26T12:15:58.977Z,23.57
2018-09-26T12:17:09.215Z,23.66
2018-09-26T12:18:19.693Z,23.47
2018-09-26T12:19:30.501Z,23.68
2018-09-26T12:20:40.658Z,23.39
2018-09-26T12:21:51.049Z,23
2018-09-26T12:23:01.374Z,22.52
2018-09-26T12:24:11.898Z,23.1
2018-09-26T12:25:22.595Z,23.39
2018-09-26T12:26:32.851Z,22.71
2018-09-26T12:27:43.055Z,23.19
2018-09-26T12:28:53.373Z,23.29
2018-09-26T12:30:04.785Z,23.58
2018-09-26T12:31:15.115Z,23.19
2018-09-26T12:32:25.247Z,23.28
2018-09-26T12:33:35.610Z,22.7
2018-09-26T12:34:45.552Z,22.89
2018-09-26T12:35:55.686Z,22.5
2018-09-26T12:37:06.048Z,22.7
2018-09-26T12:38:16.298Z,23.38
2018-09-26T12:39:26.534Z,23.28
2018-09-26T12:40:36.735Z,23.56
2018-09-26T12:41:46.969Z,23.85
2018-09-26T12:42:57.297Z,23.56
2018-09-26T12:44:07.442Z,24.04
2018-09-26T12:45:17.808Z,24.23
2018-09-26T12:46:59.622Z,24.32
2018-09-26T12:48:09.844Z,24.41
2018-09-26T12:49:20.107Z,24.61
2018-09-26T12:50:30.113Z,24.41
2018-09-26T12:51:40.292Z,24.69
2018-09-26T12:52:50.434Z,24.5
2018-09-26T12:54:01.154Z,24.6
2018-09-26T12:55:12.044Z,24.79
2018-09-26T12:56:22.185Z,24.88
2018-09-26T12:57:32.360Z,25.16
2018-09-26T12:58:42.543Z,25.45
2018-09-26T12:59:53.774Z,25.84
2018-09-26T13:01:03.454Z,25.92
2018-09-26T13:02:13.662Z,26.02
2018-09-26T13:03:24.265Z,26.03
2018-09-26T13:04:34.441Z,26.21
2018-09-26T13:05:44.864Z,26.12
2018-09-26T13:06:54.670Z,26.03
2018-09-26T13:08:05.048Z,26.03
2018-09-26T13:09:15.441Z,26.03
2018-09-26T13:10:25.764Z,26.03
2018-09-26T13:11:36.074Z,26.22
2018-09-26T13:12:45.722Z,26.03
2018-09-26T13:13:56.212Z,26.12
2018-09-26T13:15:06.377Z,26.04
2018-09-26T13:16:16.371Z,25.84
2018-09-26T13:17:26.332Z,25.93
2018-09-26T13:18:36.519Z,26.12
2018-09-26T13:19:46.411Z,26.21
2018-09-26T13:20:56.550Z,26.31
2018-09-26T13:22:06.943Z,26.4
2018-09-26T13:23:16.980Z,26.59
2018-09-26T13:24:27.312Z,26.69
2018-09-26T13:25:37.580Z,26.79
2018-09-26T13:26:47.987Z,27.35
2018-09-26T13:27:58.199Z,27.45
2018-09-26T13:29:08.351Z,27.55
2018-09-26T13:30:18.183Z,27.45
2018-09-26T13:31:28.652Z,27.35
2018-09-26T13:32:38.811Z,27.64
2018-09-26T13:33:48.603Z,28.11
2018-09-26T13:34:58.752Z,28.4
2018-09-26T13:36:09.239Z,28.2
2018-09-26T13:37:19.376Z,28.11
2018-09-26T13:38:29.660Z,28.2
2018-09-26T13:39:39.904Z,28.4
2018-09-26T13:40:50.348Z,28.4
2018-09-26T13:42:00.534Z,28.59
2018-09-26T13:43:10.803Z,28.61
2018-09-26T13:44:21.280Z,28.13
2018-09-26T13:45:31.527Z,28.22
2018-09-26T13:46:41.879Z,28.31
2018-09-26T13:47:52.662Z,28.03
2018-09-26T13:49:02.821Z,27.83
2018-09-26T13:50:12.823Z,27.74
2018-09-26T13:51:23.388Z,27.93
2018-09-26T13:52:33.570Z,28.03
2018-09-26T13:53:44.686Z,28.22
2018-09-26T13:54:55.288Z,28.03
2018-09-26T13:56:05.099Z,27.74
2018-09-26T13:57:15.105Z,27.83
2018-09-26T13:58:25.473Z,27.83
2018-09-26T13:59:35.966Z,27.93
2018-09-26T14:00:45.922Z,28.03
2018-09-26T14:01:55.803Z,27.64
2018-09-26T14:03:05.469Z,27.64
2018-09-26T14:04:15.756Z,27.06
2018-09-26T14:05:27.155Z,27.55
2018-09-26T14:06:37.365Z,27.45
2018-09-26T14:07:47.301Z,27.34
2018-09-26T14:08:57.465Z,28.02
2018-09-26T14:10:07.662Z,27.92
2018-09-26T14:11:17.660Z,27.92
2018-09-26T14:12:28.029Z,27.62
2018-09-26T14:13:38.455Z,27.92
2018-09-26T14:14:48.650Z,28.11
2018-09-26T14:15:58.932Z,27.92
2018-09-26T14:17:09.274Z,28.3
2018-09-26T14:18:19.842Z,27.92
2018-09-26T14:19:30.678Z,28.02
2018-09-26T14:20:40.861Z,27.82
2018-09-26T14:21:51.043Z,28.02
2018-09-26T14:23:01.655Z,28.11
2018-09-26T14:24:12.182Z,27.92
2018-09-26T14:25:22.413Z,28.02
2018-09-26T14:26:32.556Z,27.92
2018-09-26T14:27:42.705Z,28.11
2018-09-26T14:28:52.869Z,28.11
2018-09-26T14:30:03.017Z,27.92
2018-09-26T14:31:13.648Z,27.91
2018-09-26T14:32:23.990Z,27.91
2018-09-26T14:33:34.137Z,28.09
2018-09-26T14:34:44.441Z,28.48
2018-09-26T14:35:54.643Z,28.86
2018-09-26T14:37:05.837Z,28.96
2018-09-26T14:38:16.109Z,29.15
2018-09-26T14:39:27.031Z,28.67
2018-09-26T14:40:38.898Z,28.19
2018-09-26T14:41:49.065Z,28.29
2018-09-26T14:42:59.222Z,28.29
2018-09-26T14:44:09.545Z,28.19
2018-09-26T14:45:20.047Z,28.29
2018-09-26T14:46:30.842Z,27.91
2018-09-26T14:47:41.035Z,28.19
2018-09-26T14:48:51.330Z,28.38
2018-09-26T14:50:01.254Z,28.58
2018-09-26T14:51:11.488Z,28.77
2018-09-26T14:52:21.676Z,28.48
2018-09-26T14:53:31.834Z,28.58
2018-09-26T14:54:42.052Z,28.96
2018-09-26T14:55:52.316Z,28.96
2018-09-26T14:57:02.445Z,29.06
2018-09-26T14:58:12.880Z,29.06
2018-09-26T14:59:23.095Z,28.77
2018-09-26T15:00:33.251Z,28.96
2018-09-26T15:01:43.399Z,28.96
2018-09-26T15:02:53.568Z,29.06
2018-09-26T15:04:03.795Z,29.25
2018-09-26T15:05:14.424Z,29.15
2018-09-26T15:06:24.700Z,29.35
2018-09-26T15:07:34.892Z,29.15